Terminal Aerodrome Forecast
Issued by NWS Wakefield, VA

Home | Current Version | Previous Version | Text Only | Print | Product List | Glossary On
Versions: 1 2 3 4 5 6 7 8 9 10 11 12 13 14 15
000
FTUS41 KAKQ 300544 RRA
TAFECG
TAF
KECG 300544Z 3006/3106 VRB02KT P6SM SKC
     FM301300 10005KT P6SM SCT080
     FM301700 13008KT P6SM BKN050
     FM310000 14005KT P6SM SCT050 BKN100=

USA.gov is the U.S. government's official web portal to all federal, state and local government web resources and services.